Time;durP1;ratioP1;P1;durP2;ratioP2;P2;SDS_P1;SDS_P2;PMS_P1;PMS_P2;Temp;Humidity;BMP_temperature;BMP_pressure;BME280_temperature;BME280_humidity;BME280_pressure;Samples;Min_cycle;Max_cycle;Signal;HPM_P1;HPM_P2
2021/03/08 15:42:55;;;;;;;9.65;4.45;;;;;;;;;;5089182;28;20338;-63
2021/03/08 15:45:21;;;;;;;9.90;4.43;;;;;;;;;;5075770;28;20483;-67
2021/03/08 15:47:47;;;;;;;9.40;4.45;;;;;;;;;;5089331;28;20024;-66
2021/03/08 15:50:15;;;;;;;11.10;5.03;;;;;;;;;;5072541;28;20100;-65
2021/03/08 15:52:41;;;;;;;9.40;4.57;;;;;;;;;;5078256;28;20024;-64
2021/03/08 15:55:07;;;;;;;9.23;4.70;;;;;;;;;;5086722;28;20092;-66
2021/03/08 15:57:33;;;;;;;8.18;4.30;;;;;;;;;;5068900;28;20501;-58
2021/03/08 15:59:59;;;;;;;10.45;4.50;;;;;;;;;;5068494;28;20033;-56
2021/03/08 16:02:25;;;;;;;53.38;24.25;;;;;;;;;;5068447;28;20427;-59
2021/03/08 16:04:51;;;;;;;49.73;24.57;;;;;;;;;;5071504;28;20031;-67
2021/03/08 16:07:17;;;;;;;45.05;21.73;;;;;;;;;;5088708;28;20028;-64
2021/03/08 16:09:43;;;;;;;34.05;17.60;;;;;;;;;;5086641;28;20034;-57
2021/03/08 16:12:09;;;;;;;30.88;16.40;;;;;;;;;;5067165;28;20021;-64
2021/03/08 16:14:35;;;;;;;31.52;16.02;;;;;;;;;;5068351;28;20036;-63
2021/03/08 16:17:01;;;;;;;25.00;14.00;;;;;;;;;;5068940;28;20028;-56
2021/03/08 16:19:27;;;;;;;23.70;11.93;;;;;;;;;;5068966;28;20033;-64
2021/03/08 16:21:56;;;;;;;18.38;11.23;;;;;;;;;;5067864;28;20033;-61
2021/03/08 16:24:22;;;;;;;24.30;13.05;;;;;;;;;;5069471;28;20017;-58
2021/03/08 16:26:48;;;;;;;19.80;12.63;;;;;;;;;;5068805;28;20403;-67
2021/03/08 16:29:14;;;;;;;22.00;11.02;;;;;;;;;;5069416;28;20029;-68
2021/03/08 16:31:40;;;;;;;19.63;10.90;;;;;;;;;;5069754;28;20025;-65
2021/03/08 16:34:05;;;;;;;18.45;10.48;;;;;;;;;;5082340;28;20025;-63
2021/03/08 16:36:31;;;;;;;17.40;9.48;;;;;;;;;;5078990;28;20032;-62
2021/03/08 16:38:57;;;;;;;15.60;10.20;;;;;;;;;;5088280;28;20032;-56
2021/03/08 16:41:23;;;;;;;18.92;10.73;;;;;;;;;;5083538;28;20467;-60
2021/03/08 16:43:49;;;;;;;16.38;9.85;;;;;;;;;;5072106;28;20081;-64
2021/03/08 16:46:15;;;;;;;16.80;9.10;;;;;;;;;;5079664;28;20489;-59
2021/03/08 16:48:41;;;;;;;16.80;9.35;;;;;;;;;;5071646;28;20032;-67
2021/03/08 16:51:09;;;;;;;14.68;8.65;;;;;;;;;;5088611;28;20475;-61
2021/03/08 16:53:35;;;;;;;17.70;8.52;;;;;;;;;;5063127;28;20036;-62
2021/03/08 16:56:01;;;;;;;14.23;7.35;;;;;;;;;;5054907;28;20484;-70
2021/03/08 16:58:28;;;;;;;13.77;7.13;;;;;;;;;;5054740;28;20059;-44
2021/03/08 17:00:54;;;;;;;14.90;7.18;;;;;;;;;;5054723;28;20029;-47
2021/03/08 17:03:20;;;;;;;11.48;6.68;;;;;;;;;;5055157;28;20541;-46
2021/03/08 17:05:46;;;;;;;14.05;6.70;;;;;;;;;;5054049;28;20071;-45
2021/03/08 17:08:12;;;;;;;10.98;6.10;;;;;;;;;;5054187;28;20017;-44
2021/03/08 17:10:38;;;;;;;10.45;6.10;;;;;;;;;;5054121;28;20021;-45
2021/03/08 17:13:05;;;;;;;11.43;6.10;;;;;;;;;;5053833;28;20494;-45
2021/03/08 17:15:31;;;;;;;11.50;5.80;;;;;;;;;;5054039;28;20100;-45
2021/03/08 17:17:57;;;;;;;12.60;6.05;;;;;;;;;;5054145;28;20032;-44
2021/03/08 17:20:23;;;;;;;7.82;5.50;;;;;;;;;;5053690;28;20025;-46
2021/03/08 17:22:49;;;;;;;11.15;5.60;;;;;;;;;;5053620;28;20376;-53
2021/03/08 17:25:15;;;;;;;11.05;5.78;;;;;;;;;;5053811;28;20021;-46
2021/03/08 17:27:42;;;;;;;9.65;4.97;;;;;;;;;;5053526;28;20027;-47
2021/03/08 17:30:10;;;;;;;11.15;4.90;;;;;;;;;;5052396;28;20025;-43
2021/03/08 17:32:36;;;;;;;9.70;5.10;;;;;;;;;;5051902;28;20503;-45
2021/03/08 17:35:02;;;;;;;8.93;5.15;;;;;;;;;;5053529;28;20379;-43
2021/03/08 17:37:28;;;;;;;9.50;5.32;;;;;;;;;;5053515;28;20033;-43
2021/03/08 17:39:54;;;;;;;9.95;4.30;;;;;;;;;;5053469;28;20112;-43
2021/03/08 17:42:20;;;;;;;9.90;5.40;;;;;;;;;;5048277;28;20060;-45
2021/03/08 17:44:46;;;;;;;7.55;5.05;;;;;;;;;;5073595;28;20415;-44
2021/03/08 17:47:12;;;;;;;7.55;4.28;;;;;;;;;;5071961;28;20016;-43
2021/03/08 17:49:38;;;;;;;7.53;4.10;;;;;;;;;;5073353;28;20487;-45
2021/03/08 17:52:04;;;;;;;8.55;4.35;;;;;;;;;;5073353;28;20538;-45
2021/03/08 17:54:30;;;;;;;7.43;4.40;;;;;;;;;;5073355;28;20081;-44
2021/03/08 17:56:56;;;;;;;9.40;4.65;;;;;;;;;;5073241;28;20029;-44
2021/03/08 17:59:22;;;;;;;8.88;4.53;;;;;;;;;;5073144;28;20028;-45
2021/03/08 18:01:48;;;;;;;9.05;5.10;;;;;;;;;;5072802;28;20474;-45
2021/03/08 18:04:14;;;;;;;6.93;4.15;;;;;;;;;;5072403;28;20017;-43
2021/03/08 18:06:40;;;;;;;7.70;4.10;;;;;;;;;;5072948;28;20386;-43
2021/03/08 18:09:07;;;;;;;9.77;4.55;;;;;;;;;;5073038;28;20100;-46
2021/03/08 18:11:33;;;;;;;6.18;3.95;;;;;;;;;;5072708;28;20028;-49
2021/03/08 18:13:59;;;;;;;7.07;4.03;;;;;;;;;;5073033;28;20024;-49
2021/03/08 18:16:25;;;;;;;6.80;4.32;;;;;;;;;;5072751;28;20394;-44
2021/03/08 18:18:52;;;;;;;7.65;4.00;;;;;;;;;;5072737;28;20390;-45
2021/03/08 18:21:18;;;;;;;7.00;3.80;;;;;;;;;;5072529;28;20039;-42
2021/03/08 18:23:44;;;;;;;9.23;4.38;;;;;;;;;;5072764;28;20404;-66
2021/03/08 18:31:41;;;;;;;5.93;4.25;;;;;;;;;;5109548;27;20700;-66
2021/03/08 18:34:07;;;;;;;8.77;4.00;;;;;;;;;;5106230;28;20107;-59
2021/03/08 18:36:32;;;;;;;9.55;4.55;;;26.20;99.90;;;;;;5089491;28;20031;-66
2021/03/08 18:38:58;;;;;;;5.90;3.92;;;26.10;99.90;;;;;;5081363;28;20043;-57
2021/03/08 18:41:24;;;;;;;5.50;3.90;;;24.90;99.90;;;;;;5068628;28;20025;-63
2021/03/08 18:45:43;;;;;;;6.05;3.70;;;24.60;98.20;;;;;;5110248;27;20303;-66
2021/03/08 18:48:10;;;;;;;6.50;3.83;;;23.90;98.10;;;;;;5111062;28;20023;-69
2021/03/08 18:50:36;;;;;;;8.98;4.13;;;23.60;97.70;;;;;;5110881;28;20091;-68
2021/03/08 18:53:03;;;;;;;5.80;3.70;;;23.40;98.40;;;;;;5110535;28;20335;-65
2021/03/08 18:55:29;;;;;;;9.40;3.97;;;23.50;99.90;;;;;;5109585;28;20032;-66
2021/03/08 18:57:55;;;;;;;8.25;3.67;;;24.30;99.90;;;;;;5108560;28;20027;-48
2021/03/08 19:00:22;;;;;;;11.00;3.70;;;24.40;96.80;;;;;;5109777;28;20020;-50
2021/03/08 19:02:47;;;;;;;7.22;3.42;;;23.70;96.60;;;;;;5109887;28;20067;-53
2021/03/08 19:05:13;;;;;;;6.20;3.58;;;23.30;97.10;;;;;;5109841;28;20086;-55
2021/03/08 19:07:39;;;;;;;5.65;3.33;;;23.10;97.40;;;;;;5109652;28;20024;-54
2021/03/08 19:10:06;;;;;;;5.47;3.40;;;22.90;97.80;;;;;;5109820;28;20084;-51
2021/03/08 19:12:32;;;;;;;7.03;3.50;;;22.80;97.60;;;;;;5109947;28;20024;-54
2021/03/08 19:14:57;;;;;;;5.32;3.58;;;22.80;97.70;;;;;;5109406;28;20035;-51
2021/03/08 19:17:23;;;;;;;6.88;3.53;;;22.70;97.70;;;;;;5109526;28;20031;-50
2021/03/08 19:19:49;;;;;;;6.03;3.60;;;22.70;97.70;;;;;;5109668;28;20103;-51
2021/03/08 19:22:14;;;;;;;6.82;3.03;;;22.70;97.70;;;;;;5109397;28;20406;-51
2021/03/08 19:24:40;;;;;;;5.72;3.30;;;22.60;97.60;;;;;;5109316;28;20024;-51
2021/03/08 19:27:08;;;;;;;6.50;3.47;;;22.60;97.60;;;;;;5109481;28;20035;-50
2021/03/08 19:29:34;;;;;;;5.55;3.17;;;22.60;97.70;;;;;;5108904;28;20066;-54
2021/03/08 19:32:02;;;;;;;6.28;3.60;;;22.60;97.60;;;;;;5107829;28;20024;-49
2021/03/08 19:34:28;;;;;;;5.70;3.70;;;22.60;97.60;;;;;;5102732;28;20160;-52
2021/03/08 19:36:54;;;;;;;4.32;3.15;;;22.60;97.60;;;;;;5089174;28;20028;-52
2021/03/08 19:39:19;;;;;;;3.97;2.78;;;22.50;97.50;;;;;;5088826;28;20075;-51
2021/03/08 19:41:45;;;;;;;6.28;3.22;;;22.50;97.50;;;;;;5079370;28;20086;-51
2021/03/08 19:44:11;;;;;;;5.05;3.15;;;22.50;97.50;;;;;;5087827;28;20463;-52
2021/03/08 19:46:39;;;;;;;5.05;3.10;;;22.50;97.50;;;;;;5088593;28;20028;-53
2021/03/08 19:49:04;;;;;;;4.18;3.00;;;22.50;97.50;;;;;;5088946;28;20025;-55
2021/03/08 19:51:30;;;;;;;8.18;3.53;;;22.50;97.50;;;;;;5088434;28;20086;-50
2021/03/08 19:53:56;;;;;;;5.10;3.25;;;22.50;97.50;;;;;;5087360;28;20153;-51
2021/03/08 19:56:21;;;;;;;5.43;3.28;;;22.40;97.50;;;;;;5079254;28;20388;-51
2021/03/08 19:58:47;;;;;;;6.05;3.50;;;22.40;97.50;;;;;;5075042;28;20028;-51
2021/03/08 20:01:12;;;;;;;5.35;2.90;;;22.40;97.80;;;;;;5075018;28;20029;-49
2021/03/08 20:03:38;;;;;;;5.30;3.10;;;22.40;97.50;;;;;;5074703;28;20025;-50
2021/03/08 20:06:04;;;;;;;6.28;2.90;;;22.40;97.40;;;;;;5074886;28;20023;-50
2021/03/08 20:08:29;;;;;;;4.45;3.03;;;22.40;97.60;;;;;;5074902;28;20095;-54
2021/03/08 20:10:55;;;;;;;4.28;2.85;;;22.30;97.50;;;;;;5074700;28;20525;-51
2021/03/08 20:13:23;;;;;;;6.05;3.42;;;22.30;97.60;;;;;;5075000;28;20024;-52
2021/03/08 20:15:49;;;;;;;4.25;2.80;;;22.30;97.60;;;;;;5074772;28;20036;-51
2021/03/08 20:18:15;;;;;;;5.13;2.65;;;22.30;97.50;;;;;;5074600;28;20021;-50
2021/03/08 20:20:41;;;;;;;6.35;2.80;;;22.30;97.50;;;;;;5074493;28;20045;-52
2021/03/08 20:23:06;;;;;;;4.30;2.90;;;22.30;97.50;;;;;;5074299;28;20067;-49
2021/03/08 20:25:32;;;;;;;5.45;2.90;;;22.30;97.50;;;;;;5074369;28;20043;-49
2021/03/08 20:27:58;;;;;;;6.22;2.90;;;22.30;97.50;;;;;;5074410;28;20036;-52
2021/03/08 20:30:27;;;;;;;4.88;3.00;;;22.30;97.50;;;;;;5074446;28;20111;-53
2021/03/08 20:32:53;;;;;;;6.15;3.38;;;22.20;97.50;;;;;;5074300;28;20020;-49
2021/03/08 20:35:19;;;;;;;5.95;3.15;;;22.20;97.60;;;;;;5074328;28;20029;-52
2021/03/08 20:37:44;;;;;;;5.07;2.65;;;22.20;97.60;;;;;;5074227;28;20032;-51
2021/03/08 20:40:13;;;;;;;6.18;2.90;;;22.20;97.60;;;;;;5074165;28;20021;-50
2021/03/08 20:42:39;;;;;;;4.15;2.88;;;22.20;97.60;;;;;;5071226;28;20483;-51
2021/03/08 20:45:09;;;;;;;7.03;2.92;;;22.20;97.60;;;;;;5094076;28;20039;-51
2021/03/08 20:47:35;;;;;;;5.97;2.90;;;22.20;97.60;;;;;;5094603;28;20024;-55
2021/03/08 20:50:00;;;;;;;4.47;2.92;;;22.20;97.60;;;;;;5094384;28;20466;-51
2021/03/08 20:52:26;;;;;;;3.65;2.67;;;22.20;97.60;;;;;;5094148;28;20032;-55
2021/03/08 20:54:51;;;;;;;5.22;3.22;;;22.20;97.70;;;;;;5094284;28;20032;-56
2021/03/08 20:57:17;;;;;;;4.57;3.05;;;22.20;97.70;;;;;;5094206;28;20038;-53
2021/03/08 20:59:42;;;;;;;5.28;2.67;;;22.10;97.60;;;;;;5094089;28;20077;-53
2021/03/08 21:02:08;;;;;;;5.57;3.10;;;22.20;97.70;;;;;;5093907;28;20479;-54
2021/03/08 21:04:33;;;;;;;7.57;3.10;;;22.10;97.60;;;;;;5093883;28;20028;-54
2021/03/08 21:06:59;;;;;;;7.40;2.88;;;22.10;97.60;;;;;;5086811;28;20433;-54
2021/03/08 21:09:24;;;;;;;5.63;2.58;;;22.10;97.60;;;;;;5073464;28;20036;-51
2021/03/08 21:11:50;;;;;;;3.38;2.90;;;22.10;97.60;;;;;;5073364;28;20028;-53
2021/03/08 21:14:15;;;;;;;4.53;2.92;;;22.10;97.60;;;;;;5073583;28;20109;-48
2021/03/08 21:16:41;;;;;;;3.90;2.50;;;22.10;97.60;;;;;;5073785;28;20125;-65
2021/03/08 21:19:07;;;;;;;5.55;2.85;;;22.20;98.30;;;;;;5073594;28;20028;-51
2021/03/08 21:21:32;;;;;;;3.53;2.55;;;22.20;97.90;;;;;;5073586;28;20032;-52
2021/03/08 21:23:58;;;;;;;4.45;2.80;;;22.20;97.90;;;;;;5073259;28;20481;-53
2021/03/08 21:26:24;;;;;;;4.35;2.60;;;22.10;97.80;;;;;;5073279;28;20449;-51
2021/03/08 21:28:49;;;;;;;2.80;2.42;;;22.10;97.80;;;;;;5073318;28;20020;-53
2021/03/08 21:31:15;;;;;;;3.30;2.40;;;22.10;97.80;;;;;;5079460;28;20024;-52
2021/03/08 21:33:41;;;;;;;5.05;3.00;;;22.10;97.70;;;;;;5093539;28;20020;-50
2021/03/08 21:36:07;;;;;;;7.10;3.03;;;22.10;97.70;;;;;;5072865;28;20028;-54
2021/03/08 21:38:32;;;;;;;3.38;2.40;;;22.10;97.60;;;;;;5072425;28;20040;-50
2021/03/08 21:40:58;;;;;;;5.13;2.63;;;22.10;97.90;;;;;;5069831;28;20028;-51
2021/03/08 21:43:23;;;;;;;5.47;2.80;;;22.10;97.60;;;;;;5065307;28;20028;-52
2021/03/08 21:45:49;;;;;;;6.53;2.90;;;22.10;97.60;;;;;;5072415;28;20021;-49
2021/03/08 21:48:15;;;;;;;4.82;2.67;;;22.00;97.60;;;;;;5072348;28;20032;-51
2021/03/08 21:50:40;;;;;;;5.13;2.70;;;22.10;97.60;;;;;;5072260;28;20060;-53
2021/03/08 21:53:06;;;;;;;3.47;2.80;;;22.00;97.60;;;;;;5072228;28;20394;-50
2021/03/08 21:55:32;;;;;;;4.40;2.53;;;22.00;97.60;;;;;;5072180;28;20475;-50
2021/03/08 21:57:57;;;;;;;3.88;2.80;;;22.00;97.50;;;;;;5072210;28;20111;-52
2021/03/08 22:00:23;;;;;;;5.88;2.45;;;22.00;97.60;;;;;;5070872;28;20032;-52
2021/03/08 22:02:49;;;;;;;3.40;2.47;;;22.00;97.60;;;;;;5071983;28;20036;-54
2021/03/08 22:05:17;;;;;;;5.63;2.58;;;22.00;97.50;;;;;;5072054;28;20025;-52
2021/03/08 22:07:42;;;;;;;5.75;2.55;;;22.00;97.50;;;;;;5071929;28;20382;-50
2021/03/08 22:10:10;;;;;;;4.53;3.00;;;22.00;97.50;;;;;;5072068;28;20021;-56
2021/03/08 22:12:36;;;;;;;4.22;2.70;;;22.00;97.40;;;;;;5071768;28;20048;-53
2021/03/08 22:15:03;;;;;;;5.90;2.92;;;22.00;97.40;;;;;;5071919;28;20048;-52
2021/03/08 22:17:28;;;;;;;4.78;2.70;;;22.00;97.40;;;;;;5071878;28;20482;-52
2021/03/08 22:19:54;;;;;;;4.53;2.88;;;22.00;97.30;;;;;;5071536;28;20032;-53
2021/03/08 22:22:19;;;;;;;3.30;2.47;;;22.00;97.30;;;;;;5071609;28;20032;-49
2021/03/08 22:24:45;;;;;;;4.45;2.60;;;22.00;97.30;;;;;;5071770;28;20078;-52
2021/03/08 22:27:11;;;;;;;4.60;2.80;;;22.00;97.20;;;;;;5071969;28;20085;-53
2021/03/08 22:29:36;;;;;;;5.15;2.80;;;22.00;97.20;;;;;;5071667;28;20028;-50
2021/03/08 22:32:02;;;;;;;4.65;2.72;;;22.00;97.20;;;;;;5071554;28;20383;-51
2021/03/08 22:34:28;;;;;;;3.70;2.85;;;22.00;97.10;;;;;;5071765;28;20391;-51
2021/03/08 22:36:53;;;;;;;3.13;2.70;;;22.00;97.10;;;;;;5071649;28;20491;-50
2021/03/08 22:39:19;;;;;;;3.70;2.80;;;22.00;97.00;;;;;;5071560;28;20024;-51
2021/03/08 22:41:44;;;;;;;5.63;2.78;;;22.00;97.00;;;;;;5062566;28;20033;-52
2021/03/08 22:44:10;;;;;;;3.15;2.35;;;22.00;97.00;;;;;;5090794;28;20034;-50
2021/03/08 22:46:35;;;;;;;3.63;2.70;;;21.90;96.90;;;;;;5091820;28;20032;-50
2021/03/08 22:49:01;;;;;;;4.05;2.53;;;21.90;96.80;;;;;;5091753;28;20023;-49
2021/03/08 22:51:27;;;;;;;3.78;2.53;;;21.90;96.80;;;;;;5091593;28;20092;-51
2021/03/08 22:53:53;;;;;;;3.08;2.50;;;21.90;96.80;;;;;;5091692;28;20030;-51
2021/03/08 22:56:19;;;;;;;3.80;2.65;;;21.90;96.70;;;;;;5091784;28;20032;-51
2021/03/08 22:58:44;;;;;;;6.13;2.63;;;21.90;96.70;;;;;;5091537;28;20110;-50
2021/03/08 23:01:10;;;;;;;3.83;2.75;;;21.90;96.70;;;;;;5091598;28;20111;-49
2021/03/08 23:03:35;;;;;;;3.28;2.50;;;21.90;96.60;;;;;;5091504;28;20660;-52
2021/03/08 23:06:01;;;;;;;5.85;2.60;;;21.90;96.60;;;;;;5091638;28;20040;-50
2021/03/08 23:08:27;;;;;;;3.70;2.90;;;21.90;96.50;;;;;;5091636;28;20035;-53
2021/03/08 23:10:52;;;;;;;4.05;2.90;;;21.90;96.50;;;;;;5091420;28;20502;-52
2021/03/08 23:13:18;;;;;;;3.92;2.80;;;21.90;96.50;;;;;;5091725;28;20025;-55
2021/03/08 23:15:43;;;;;;;3.80;2.75;;;21.90;96.40;;;;;;5091641;28;20483;-50
2021/03/08 23:18:10;;;;;;;3.78;2.63;;;21.90;96.40;;;;;;5091420;28;20482;-52
2021/03/08 23:20:35;;;;;;;4.57;2.55;;;21.90;96.40;;;;;;5091427;28;20024;-52
2021/03/08 23:23:01;;;;;;;3.03;2.67;;;21.90;96.30;;;;;;5091293;28;20032;-50
2021/03/08 23:25:28;;;;;;;3.78;2.80;;;21.90;96.20;;;;;;5091356;28;20040;-50
2021/03/08 23:27:55;;;;;;;3.80;2.58;;;21.90;96.20;;;;;;5091491;28;20017;-51
2021/03/08 23:30:33;;;;;;;5.80;2.95;;;21.90;96.10;;;;;;5091512;28;20539;-49
2021/03/08 23:33:00;;;;;;;3.30;3.00;;;21.80;96.00;;;;;;5095037;28;20098;-52
2021/03/08 23:35:25;;;;;;;3.92;2.80;;;21.80;96.00;;;;;;5080584;28;20616;-50
2021/03/08 23:37:51;;;;;;;4.18;2.90;;;21.80;96.00;;;;;;5074832;28;20115;-53
2021/03/08 23:40:19;;;;;;;3.40;2.38;;;21.80;95.90;;;;;;5074873;28;20032;-50
2021/03/08 23:42:45;;;;;;;2.92;2.50;;;21.80;95.80;;;;;;5073856;28;20056;-49
2021/03/08 23:45:14;;;;;;;3.20;2.60;;;21.80;95.80;;;;;;5094820;28;20509;-52
2021/03/08 23:47:43;;;;;;;4.40;2.67;;;21.80;95.70;;;;;;5094957;28;20103;-49
2021/03/08 23:50:10;;;;;;;4.35;2.92;;;21.80;95.70;;;;;;5094760;28;20462;-50
2021/03/08 23:52:35;;;;;;;4.63;2.97;;;21.80;95.60;;;;;;5094640;28;20547;-51
2021/03/08 23:55:03;;;;;;;2.85;2.55;;;21.80;95.60;;;;;;5094746;28;20040;-53
2021/03/08 23:57:28;;;;;;;3.80;2.45;;;21.80;95.60;;;;;;5094917;28;20490;-52
2021/03/08 23:59:54;;;;;;;5.10;2.97;;;21.80;95.50;;;;;;5094598;28;20115;-50
